Truxton, Missouri
Current Conditions -  °F | °C
As of 2:55 PM on Thursday 23 Oct 2014 (Local Time) from KFYG Reporting Station
Scattered Clouds Scattered Clouds  
Wind Chill: 18°   Ceiling: Unl
Heat Index: 18°   Visibility: 10mi
Dew Point:   Wind: 0mph
Humidity: 52%   Direction: NA
Pressure: 30.1"   Gusts: NA
Location:  39°N, 91.24°W
Report Text: KFYG 231955Z AUTO 00000KT 10SM SCT110 18/08 A3010 RMK AO2
Loading
Personal Weather Stations






























Interactive Weather Map
Tropical Storm Tracking
New forecast layout! Learn more

10-Day Weather Forecast

Advertisements
Track Severe Weather on mobile